createdAt,value
2018-10-11T00:02:04.313Z,99.90
2018-10-11T00:04:35.861Z,99.90
2018-10-11T00:07:07.735Z,99.90
2018-10-11T00:09:39.617Z,99.90
2018-10-11T00:12:11.905Z,99.90
2018-10-11T00:14:43.242Z,99.90
2018-10-11T00:17:15.289Z,99.90
2018-10-11T00:19:47.433Z,99.90
2018-10-11T00:22:19.387Z,99.90
2018-10-11T00:24:51.044Z,99.90
2018-10-11T00:27:22.765Z,99.90
2018-10-11T00:29:54.482Z,99.90
2018-10-11T00:32:26.539Z,99.90
2018-10-11T00:34:58.401Z,99.90
2018-10-11T00:37:30.527Z,99.90
2018-10-11T00:40:02.404Z,99.90
2018-10-11T00:42:34.084Z,99.90
2018-10-11T00:45:06.190Z,99.90
2018-10-11T00:47:39.028Z,99.90
2018-10-11T00:50:10.471Z,99.90
2018-10-11T00:52:42.113Z,99.90
2018-10-11T00:55:13.903Z,99.90
2018-10-11T00:57:45.775Z,99.90
2018-10-11T01:00:18.060Z,99.90
2018-10-11T01:02:50.047Z,99.90
2018-10-11T01:05:21.713Z,99.90
2018-10-11T01:07:53.525Z,99.90
2018-10-11T01:10:25.284Z,99.90
2018-10-11T01:12:57.197Z,99.90
2018-10-11T01:15:28.969Z,99.90
2018-10-11T01:18:00.769Z,99.90
2018-10-11T01:20:33.027Z,99.90
2018-10-11T01:23:04.416Z,99.90
2018-10-11T01:25:36.217Z,99.90
2018-10-11T01:28:08.315Z,99.90
2018-10-11T01:30:44.903Z,99.90
2018-10-11T01:33:16.797Z,99.90
2018-10-11T01:35:48.614Z,99.90
2018-10-11T01:38:20.494Z,99.90
2018-10-11T01:40:52.411Z,99.90
2018-10-11T01:43:24.267Z,99.90
2018-10-11T01:45:57.063Z,99.90
2018-10-11T01:48:32.929Z,99.90
2018-10-11T01:51:05.566Z,99.90
2018-10-11T01:53:37.316Z,99.90
2018-10-11T01:56:09.427Z,99.90
2018-10-11T01:58:41.395Z,99.90
2018-10-11T02:01:13.162Z,99.90
2018-10-11T02:03:44.878Z,99.90
2018-10-11T02:06:16.464Z,99.90
2018-10-11T02:08:48.369Z,99.90
2018-10-11T02:11:19.806Z,99.90
2018-10-11T02:13:51.587Z,99.90
2018-10-11T02:16:23.416Z,99.90
2018-10-11T02:18:55.061Z,99.90
2018-10-11T02:21:27.042Z,99.90
2018-10-11T02:23:59.300Z,99.90
2018-10-11T02:26:31.099Z,99.90
2018-10-11T02:29:02.953Z,99.90
2018-10-11T02:31:34.587Z,99.90
2018-10-11T02:34:06.565Z,99.90
2018-10-11T02:36:38.259Z,99.90
2018-10-11T02:39:11.058Z,99.90
2018-10-11T02:41:42.863Z,99.90
2018-10-11T02:44:14.235Z,99.90
2018-10-11T02:46:46.166Z,99.90
2018-10-11T02:49:17.895Z,99.90
2018-10-11T02:51:49.569Z,99.90
2018-10-11T02:54:21.539Z,99.90
2018-10-11T02:56:56.717Z,99.90
2018-10-11T02:59:34.402Z,99.90
2018-10-11T03:02:11.163Z,99.90
2018-10-11T03:04:45.866Z,99.90
2018-10-11T03:07:18.837Z,99.90
2018-10-11T03:09:50.712Z,99.90
2018-10-11T03:12:22.590Z,99.90
2018-10-11T03:14:54.617Z,99.90
2018-10-11T03:17:26.256Z,99.90
2018-10-11T03:19:58.050Z,99.90
2018-10-11T03:22:29.684Z,99.90
2018-10-11T03:25:01.540Z,99.90
2018-10-11T03:27:33.530Z,99.90
2018-10-11T03:30:05.346Z,99.90
2018-10-11T03:32:37.267Z,99.90
2018-10-11T03:35:09.180Z,99.90
2018-10-11T03:37:41.002Z,99.90
2018-10-11T03:40:12.262Z,99.90
2018-10-11T03:42:44.034Z,99.90
2018-10-11T03:45:16.315Z,99.90
2018-10-11T03:47:48.355Z,99.90
2018-10-11T03:50:20.047Z,99.90
2018-10-11T03:52:52.059Z,99.90
2018-10-11T03:55:23.996Z,99.90
2018-10-11T03:57:55.960Z,99.90
2018-10-11T04:00:27.688Z,99.90
2018-10-11T04:02:58.845Z,99.90
2018-10-11T04:05:30.674Z,99.90
2018-10-11T04:08:02.331Z,99.90
2018-10-11T04:10:33.383Z,99.90
2018-10-11T04:13:03.710Z,99.90
2018-10-11T04:15:35.463Z,99.90
2018-10-11T04:18:07.715Z,99.90
2018-10-11T04:20:39.065Z,99.90
2018-10-11T04:23:14.949Z,99.90
2018-10-11T04:25:46.820Z,99.90
2018-10-11T04:28:17.956Z,99.90
2018-10-11T04:30:49.059Z,99.90
2018-10-11T04:33:20.846Z,99.90
2018-10-11T04:35:52.731Z,99.90
2018-10-11T04:38:23.905Z,99.90
2018-10-11T04:40:55.247Z,99.90
2018-10-11T04:43:26.992Z,99.90
2018-10-11T04:45:59.041Z,99.90
2018-10-11T04:48:29.482Z,99.90
2018-10-11T04:51:00.885Z,99.90
2018-10-11T04:53:32.938Z,99.90
2018-10-11T04:56:04.842Z,99.90
2018-10-11T04:58:36.265Z,99.90
2018-10-11T05:01:07.606Z,99.90
2018-10-11T05:03:39.703Z,99.90
2018-10-11T05:06:11.473Z,99.90
2018-10-11T05:08:42.699Z,99.90
2018-10-11T05:11:14.536Z,99.90
2018-10-11T05:13:48.767Z,99.90
2018-10-11T05:16:20.587Z,99.90
2018-10-11T05:19:03.171Z,99.90
2018-10-11T05:21:34.673Z,99.90
2018-10-11T05:24:07.203Z,99.90
2018-10-11T05:26:38.587Z,99.90
2018-10-11T05:29:10.263Z,99.90
2018-10-11T05:31:42.005Z,99.90
2018-10-11T05:34:14.518Z,99.90
2018-10-11T05:36:46.236Z,99.90
2018-10-11T05:39:18.992Z,99.90
2018-10-11T05:41:51.293Z,99.90
2018-10-11T05:44:22.746Z,99.90
2018-10-11T05:46:55.553Z,99.90
2018-10-11T05:49:28.091Z,99.90
2018-10-11T05:52:00.241Z,99.90
2018-10-11T05:54:31.857Z,99.90
2018-10-11T05:57:03.285Z,99.90
2018-10-11T05:59:35.426Z,99.90
2018-10-11T06:02:08.943Z,99.90
2018-10-11T06:04:40.171Z,99.90
2018-10-11T06:07:11.679Z,99.90
2018-10-11T06:09:43.848Z,99.90
2018-10-11T06:12:15.575Z,99.90
2018-10-11T06:14:47.096Z,99.90
2018-10-11T06:17:19.071Z,99.90
2018-10-11T06:19:51.353Z,99.90
2018-10-11T06:22:22.701Z,99.90
2018-10-11T06:24:54.097Z,99.90
2018-10-11T06:27:27.219Z,99.90
2018-10-11T06:29:59.780Z,99.90
2018-10-11T06:32:31.137Z,99.90
2018-10-11T06:35:02.553Z,99.90
2018-10-11T06:37:34.480Z,99.90
2018-10-11T06:40:06.497Z,99.90
2018-10-11T06:42:37.159Z,99.90
2018-10-11T06:45:10.613Z,99.90
2018-10-11T06:47:43.280Z,99.90
2018-10-11T06:50:15.520Z,99.90
2018-10-11T06:52:46.742Z,99.90
2018-10-11T06:55:18.965Z,99.90
2018-10-11T06:57:51.593Z,99.90
2018-10-11T07:00:22.887Z,99.90
2018-10-11T07:02:54.334Z,99.90
2018-10-11T07:05:26.721Z,99.90
2018-10-11T07:07:58.801Z,99.90
2018-10-11T07:10:30.022Z,99.90
2018-10-11T07:13:01.241Z,99.90
2018-10-11T07:15:32.714Z,99.90
2018-10-11T07:18:05.611Z,99.90
2018-10-11T07:20:37.022Z,99.90
2018-10-11T07:23:08.057Z,99.90
2018-10-11T07:25:40.270Z,99.90
2018-10-11T07:28:14.319Z,99.90
2018-10-11T07:30:45.699Z,99.90
2018-10-11T07:33:17.877Z,99.90
2018-10-11T07:35:50.096Z,99.90
2018-10-11T07:38:21.528Z,99.90
2018-10-11T07:40:52.831Z,99.90
2018-10-11T07:43:25.228Z,99.90
2018-10-11T07:45:57.507Z,99.90
2018-10-11T07:48:28.884Z,99.90
2018-10-11T07:51:00.308Z,99.90
2018-10-11T07:53:32.788Z,99.90
2018-10-11T07:56:04.747Z,99.90
2018-10-11T07:58:36.252Z,99.90
2018-10-11T08:01:07.894Z,99.90
2018-10-11T08:03:41.894Z,99.90
2018-10-11T08:06:14.078Z,99.90
2018-10-11T08:08:45.876Z,99.90
2018-10-11T08:11:17.459Z,99.90
2018-10-11T08:13:49.664Z,99.90
2018-10-11T08:16:22.145Z,99.90
2018-10-11T08:18:53.100Z,99.90
2018-10-11T08:21:25.450Z,99.90
2018-10-11T08:23:57.776Z,99.90
2018-10-11T08:26:30.162Z,99.90
2018-10-11T08:29:01.866Z,99.90
2018-10-11T08:31:33.934Z,99.90
2018-10-11T08:34:05.897Z,99.90
2018-10-11T08:36:37.284Z,99.90
2018-10-11T08:39:11.314Z,99.90
2018-10-11T08:41:43.130Z,99.90
2018-10-11T08:44:15.090Z,99.90
2018-10-11T08:46:47.144Z,99.90
2018-10-11T08:49:19.357Z,99.90
2018-10-11T08:51:51.383Z,99.90
2018-10-11T08:54:28.832Z,99.90
2018-10-11T08:57:01.521Z,99.90
2018-10-11T08:59:34.514Z,99.90
2018-10-11T09:02:08.356Z,99.90
2018-10-11T09:04:39.431Z,99.90
2018-10-11T09:07:11.696Z,99.90
2018-10-11T09:09:45.128Z,99.90
2018-10-11T09:12:16.802Z,99.90
2018-10-11T09:14:49.512Z,99.90
2018-10-11T09:17:22.399Z,99.90
2018-10-11T09:19:55.312Z,99.90
2018-10-11T09:22:27.700Z,99.90
2018-10-11T09:24:59.550Z,99.90
2018-10-11T09:27:32.420Z,99.90
2018-10-11T09:30:05.926Z,99.90
2018-10-11T09:32:37.721Z,99.90
2018-10-11T09:35:09.732Z,99.90
2018-10-11T09:37:42.344Z,99.90
2018-10-11T09:40:14.891Z,99.90
2018-10-11T09:42:49.535Z,99.90
2018-10-11T09:45:22.198Z,99.90
2018-10-11T09:47:54.625Z,99.90
2018-10-11T09:50:26.980Z,99.90
2018-10-11T09:52:58.322Z,99.90
2018-10-11T09:55:32.335Z,99.90
2018-10-11T09:58:04.992Z,99.90
2018-10-11T10:00:42.042Z,99.90
2018-10-11T10:03:13.110Z,99.90
2018-10-11T10:05:45.129Z,99.90
2018-10-11T10:08:16.941Z,99.90
2018-10-11T10:10:50.010Z,99.90
2018-10-11T10:13:23.523Z,99.90
2018-10-11T10:15:55.916Z,99.90
2018-10-11T10:18:27.706Z,99.90
2018-10-11T10:20:59.524Z,99.90
2018-10-11T10:23:32.154Z,99.90
2018-10-11T10:26:05.225Z,99.90
2018-10-11T10:28:37.142Z,99.90
2018-10-11T10:31:08.618Z,99.90
2018-10-11T10:33:42.016Z,99.90
2018-10-11T10:36:14.090Z,99.90
2018-10-11T10:38:46.701Z,99.90
2018-10-11T10:41:21.105Z,99.90
2018-10-11T10:43:53.733Z,99.90
2018-10-11T10:46:25.672Z,99.90
2018-10-11T10:48:56.851Z,99.90
2018-10-11T10:51:29.971Z,99.90
2018-10-11T10:54:02.438Z,99.90
2018-10-11T10:56:34.932Z,99.90
2018-10-11T10:59:09.256Z,99.90
2018-10-11T11:01:41.708Z,99.70
2018-10-11T11:04:14.918Z,99.60
2018-10-11T11:06:47.248Z,99.80
2018-10-11T11:09:23.416Z,99.70
2018-10-11T11:11:56.090Z,98.10
2018-10-11T11:14:27.898Z,98.20
2018-10-11T11:17:00.011Z,97.40
2018-10-11T11:19:32.537Z,97.50
2018-10-11T11:22:05.063Z,97.20
2018-10-11T11:24:36.917Z,96.80
2018-10-11T11:27:08.934Z,96.20
2018-10-11T11:29:41.425Z,95.40
2018-10-11T11:32:14.279Z,94.50
2018-10-11T11:34:46.035Z,95.00
2018-10-11T11:37:19.707Z,94.70
2018-10-11T11:39:52.761Z,94.00
2018-10-11T11:42:24.222Z,94.10
2018-10-11T11:44:56.038Z,93.60
2018-10-11T11:47:28.596Z,92.60
2018-10-11T11:50:02.642Z,91.70
2018-10-11T11:52:34.336Z,91.50
2018-10-11T11:55:06.390Z,91.50
2018-10-11T11:57:39.282Z,90.90
2018-10-11T12:00:12.040Z,91.10
2018-10-11T12:02:44.034Z,90.30
2018-10-11T12:05:16.672Z,90.80
2018-10-11T12:07:49.485Z,91.00
2018-10-11T12:10:21.738Z,92.00
2018-10-11T12:12:57.098Z,90.90
2018-10-11T12:15:30.610Z,90.90
2018-10-11T12:18:04.100Z,90.30
2018-10-11T12:20:37.498Z,91.10
2018-10-11T12:23:10.737Z,91.10
2018-10-11T12:25:43.314Z,92.20
2018-10-11T12:28:16.139Z,91.40
2018-10-11T12:30:49.318Z,91.40
2018-10-11T12:33:21.453Z,91.30
2018-10-11T12:35:53.784Z,91.30
2018-10-11T12:38:28.602Z,91.60
2018-10-11T12:41:00.985Z,91.60
2018-10-11T12:43:33.062Z,91.70
2018-10-11T12:46:05.583Z,92.00
2018-10-11T12:48:37.502Z,91.70
2018-10-11T12:51:09.770Z,92.10
2018-10-11T12:53:45.096Z,91.40
2018-10-11T12:56:15.619Z,91.20
2018-10-11T12:58:49.202Z,91.30
2018-10-11T13:01:24.066Z,91.00
2018-10-11T13:03:55.060Z,91.20
2018-10-11T13:06:27.098Z,90.80
2018-10-11T13:08:59.206Z,90.60
2018-10-11T13:11:34.738Z,91.00
2018-10-11T13:14:07.723Z,91.00
2018-10-11T13:16:39.738Z,90.20
2018-10-11T13:19:10.828Z,90.30
2018-10-11T13:21:43.656Z,90.20
2018-10-11T13:24:15.406Z,90.10
2018-10-11T13:26:47.788Z,90.40
2018-10-11T13:29:20.894Z,89.20
2018-10-11T13:31:53.709Z,89.30
2018-10-11T13:34:25.715Z,89.70
2018-10-11T13:36:57.840Z,88.60
2018-10-11T13:39:30.668Z,85.80
2018-10-11T13:42:03.146Z,87.10
2018-10-11T13:44:35.028Z,86.30
2018-10-11T13:47:07.012Z,88.40
2018-10-11T13:49:40.415Z,86.40
2018-10-11T13:52:15.494Z,84.30
2018-10-11T13:54:45.182Z,83.90
2018-10-11T13:57:18.291Z,85.80
2018-10-11T13:59:51.014Z,83.90
2018-10-11T14:02:22.086Z,83.80
2018-10-11T14:04:54.479Z,83.00
2018-10-11T14:07:27.061Z,82.70
2018-10-11T14:09:59.900Z,84.10
2018-10-11T14:12:31.808Z,83.50
2018-10-11T14:15:03.666Z,84.30
2018-10-11T14:17:36.682Z,83.70
2018-10-11T14:20:10.574Z,84.70
2018-10-11T14:22:42.378Z,83.80
2018-10-11T14:25:15.915Z,83.90
2018-10-11T14:27:49.395Z,85.10
2018-10-11T14:30:21.184Z,84.40
2018-10-11T14:32:52.971Z,84.70
2018-10-11T14:35:25.657Z,85.80
2018-10-11T14:37:58.189Z,86.00
2018-10-11T14:40:30.172Z,86.70
2018-10-11T14:43:02.061Z,88.90
2018-10-11T14:45:35.625Z,87.00
2018-10-11T14:48:08.287Z,87.80
2018-10-11T14:50:39.428Z,86.90
2018-10-11T14:53:11.153Z,88.30
2018-10-11T14:55:44.006Z,88.80
2018-10-11T14:58:16.205Z,87.40
2018-10-11T15:00:49.805Z,87.70
2018-10-11T15:03:22.403Z,87.00
2018-10-11T15:05:55.170Z,87.70
2018-10-11T15:08:27.325Z,88.30
2018-10-11T15:10:59.163Z,87.10
2018-10-11T15:13:31.741Z,86.80
2018-10-11T15:16:05.668Z,87.50
2018-10-11T15:18:37.913Z,86.00
2018-10-11T15:21:09.763Z,86.20
2018-10-11T15:23:42.736Z,87.20
2018-10-11T15:26:15.625Z,86.40
2018-10-11T15:28:47.491Z,86.10
2018-10-11T15:31:20.161Z,85.30
2018-10-11T15:33:52.115Z,84.10
2018-10-11T15:36:24.193Z,84.40
2018-10-11T15:38:55.993Z,84.30
2018-10-11T15:41:28.543Z,85.00
2018-10-11T15:44:01.607Z,85.10
2018-10-11T15:46:33.638Z,86.40
2018-10-11T15:49:06.604Z,85.80
2018-10-11T15:51:40.818Z,87.10
2018-10-11T15:54:12.950Z,88.70
2018-10-11T15:56:44.723Z,88.80
2018-10-11T15:59:17.345Z,90.30
2018-10-11T16:01:50.471Z,90.10
2018-10-11T16:04:22.575Z,90.70
2018-10-11T16:06:54.497Z,91.70
2018-10-11T16:09:27.559Z,93.00
2018-10-11T16:12:00.749Z,93.40
2018-10-11T16:14:31.169Z,94.40
2018-10-11T16:17:02.426Z,95.30
2018-10-11T16:19:34.643Z,97.00
2018-10-11T16:22:06.605Z,98.40
2018-10-11T16:24:37.816Z,99.50
2018-10-11T16:27:11.105Z,99.90
2018-10-11T16:29:43.391Z,99.90
2018-10-11T16:32:15.431Z,99.90
2018-10-11T16:34:46.694Z,99.90
2018-10-11T16:37:19.399Z,99.90
2018-10-11T16:39:51.195Z,99.90
2018-10-11T16:42:21.743Z,99.90
2018-10-11T16:44:54.091Z,99.90
2018-10-11T16:47:26.189Z,99.90
2018-10-11T16:49:58.548Z,99.90
2018-10-11T16:52:29.985Z,99.90
2018-10-11T16:55:01.396Z,99.90
2018-10-11T16:57:32.936Z,99.90
2018-10-11T17:00:05.497Z,99.90
2018-10-11T17:02:36.710Z,99.90
2018-10-11T17:05:07.890Z,99.90
2018-10-11T17:07:40.039Z,99.90
2018-10-11T17:10:12.011Z,99.90
2018-10-11T17:12:42.999Z,99.90
2018-10-11T17:15:14.578Z,99.90
2018-10-11T17:17:46.757Z,99.90
2018-10-11T17:20:18.176Z,99.90
2018-10-11T17:22:49.538Z,99.90
2018-10-11T17:25:21.574Z,99.90
2018-10-11T17:27:58.262Z,99.90
2018-10-11T17:30:29.602Z,99.90
2018-10-11T17:33:01.006Z,99.90
2018-10-11T17:35:32.638Z,99.90
2018-10-11T17:38:04.829Z,99.90
2018-10-11T17:40:36.178Z,99.90
2018-10-11T17:43:07.617Z,99.90
2018-10-11T17:45:39.326Z,99.90
2018-10-11T17:48:11.344Z,99.90
2018-10-11T17:50:42.805Z,99.90
2018-10-11T17:53:14.561Z,99.90
2018-10-11T17:55:46.396Z,99.90
2018-10-11T17:58:18.151Z,99.90
2018-10-11T18:00:49.837Z,99.90
2018-10-11T18:03:21.870Z,99.90
2018-10-11T18:05:55.610Z,99.90
2018-10-11T18:08:27.295Z,99.90
2018-10-11T18:10:58.687Z,99.90
2018-10-11T18:13:31.140Z,99.90
